Mulga, Alabama
Current Conditions -  °F | °C
As of 7:53 AM on Thursday 27 Nov 2014 (Local Time) from KBHM Reporting Station
Few Clouds Few Clouds  
Wind Chill: 34°   Ceiling: Unl
Heat Index: 39°   Visibility: 10mi
Dew Point: 32°   Wind: 7mph
Humidity: 76%   Direction: 300°WNW
Pressure: 30.34"   Gusts: NA
Location:  33.55°N, 86.97°W
Report Text: KBHM 271353Z 30006KT 10SM FEW035 04/00 A3034 RMK AO2 SLP275 T00390000
Loading
Personal Weather Stations






























Interactive Weather Map New forecast layout! Learn more

10-Day Weather Forecast

Advertisements
Track Severe Weather on mobile